sensor_id;sensor_type;location;lat;lon;timestamp;pressure;altitude;pressure_sealevel;temperature;humidity
11099;BME280;12223;42.650;23.364;2023-06-26T00:01:57;94463.16;;;20.64;100.00
11099;BME280;12223;42.650;23.364;2023-06-26T00:04:23;94472.16;;;20.73;100.00
11099;BME280;12223;42.650;23.364;2023-06-26T00:06:50;94475.63;;;20.74;100.00
11099;BME280;12223;42.650;23.364;2023-06-26T00:09:17;94470.75;;;20.76;100.00
11099;BME280;12223;42.650;23.364;2023-06-26T00:11:44;94471.84;;;20.75;100.00
11099;BME280;12223;42.650;23.364;2023-06-26T00:14:12;94445.06;;;20.51;100.00
11099;BME280;12223;42.650;23.364;2023-06-26T00:16:39;94468.72;;;20.68;100.00
11099;BME280;12223;42.650;23.364;2023-06-26T00:19:07;94463.94;;;20.65;100.00
11099;BME280;12223;42.650;23.364;2023-06-26T00:21:34;94454.38;;;20.59;100.00
11099;BME280;12223;42.650;23.364;2023-06-26T00:24:01;94453.78;;;20.62;100.00
11099;BME280;12223;42.650;23.364;2023-06-26T00:26:28;94441.66;;;20.45;100.00
11099;BME280;12223;42.650;23.364;2023-06-26T00:28:54;94447.69;;;20.56;100.00
11099;BME280;12223;42.650;23.364;2023-06-26T00:31:23;94439.50;;;20.48;100.00
11099;BME280;12223;42.650;23.364;2023-06-26T00:33:55;94428.78;;;20.48;100.00
11099;BME280;12223;42.650;23.364;2023-06-26T00:36:22;94430.94;;;20.45;100.00
11099;BME280;12223;42.650;23.364;2023-06-26T00:38:49;94436.59;;;20.44;100.00
11099;BME280;12223;42.650;23.364;2023-06-26T00:41:16;94422.88;;;20.45;100.00
11099;BME280;12223;42.650;23.364;2023-06-26T00:43:43;94421.53;;;20.48;100.00
11099;BME280;12223;42.650;23.364;2023-06-26T00:46:12;94430.28;;;20.54;100.00
11099;BME280;12223;42.650;23.364;2023-06-26T00:48:42;94421.22;;;20.50;100.00
11099;BME280;12223;42.650;23.364;2023-06-26T00:51:11;94421.00;;;20.46;100.00
11099;BME280;12223;42.650;23.364;2023-06-26T00:53:38;94424.78;;;20.45;100.00
11099;BME280;12223;42.650;23.364;2023-06-26T00:56:05;94419.56;;;20.35;100.00
11099;BME280;12223;42.650;23.364;2023-06-26T00:58:33;94410.91;;;20.38;100.00
11099;BME280;12223;42.650;23.364;2023-06-26T01:01:00;94411.78;;;20.33;100.00
11099;BME280;12223;42.650;23.364;2023-06-26T01:03:28;94402.72;;;20.29;100.00
11099;BME280;12223;42.650;23.364;2023-06-26T01:05:56;94403.16;;;20.36;100.00
11099;BME280;12223;42.650;23.364;2023-06-26T01:08:27;94402.66;;;20.34;100.00
11099;BME280;12223;42.650;23.364;2023-06-26T01:10:54;94402.94;;;20.33;100.00
11099;BME280;12223;42.650;23.364;2023-06-26T01:13:21;94403.75;;;20.33;100.00
11099;BME280;12223;42.650;23.364;2023-06-26T01:15:49;94395.75;;;20.28;100.00
11099;BME280;12223;42.650;23.364;2023-06-26T01:18:16;94386.44;;;20.21;100.00
11099;BME280;12223;42.650;23.364;2023-06-26T01:20:44;94391.47;;;20.27;100.00
11099;BME280;12223;42.650;23.364;2023-06-26T01:23:17;94380.22;;;20.25;100.00
11099;BME280;12223;42.650;23.364;2023-06-26T01:25:56;94393.63;;;20.25;100.00
11099;BME280;12223;42.650;23.364;2023-06-26T01:28:30;94385.13;;;20.18;100.00
11099;BME280;12223;42.650;23.364;2023-06-26T01:30:58;94374.63;;;20.03;100.00
11099;BME280;12223;42.650;23.364;2023-06-26T01:33:26;94366.94;;;19.96;100.00
11099;BME280;12223;42.650;23.364;2023-06-26T01:35:53;94359.34;;;20.03;100.00
11099;BME280;12223;42.650;23.364;2023-06-26T01:38:21;94355.94;;;19.98;100.00
11099;BME280;12223;42.650;23.364;2023-06-26T01:40:50;94357.00;;;19.97;100.00
11099;BME280;12223;42.650;23.364;2023-06-26T01:43:20;94355.13;;;19.97;100.00
11099;BME280;12223;42.650;23.364;2023-06-26T01:45:54;94351.69;;;19.92;100.00
11099;BME280;12223;42.650;23.364;2023-06-26T01:48:38;94353.88;;;19.90;100.00
11099;BME280;12223;42.650;23.364;2023-06-26T01:51:07;94355.81;;;19.84;100.00
11099;BME280;12223;42.650;23.364;2023-06-26T01:53:37;94355.81;;;19.84;100.00
11099;BME280;12223;42.650;23.364;2023-06-26T01:56:07;94346.28;;;19.73;100.00
11099;BME280;12223;42.650;23.364;2023-06-26T01:58:35;94358.06;;;19.77;100.00
11099;BME280;12223;42.650;23.364;2023-06-26T02:01:06;94353.78;;;19.76;100.00
11099;BME280;12223;42.650;23.364;2023-06-26T02:03:34;94354.50;;;19.82;100.00
11099;BME280;12223;42.650;23.364;2023-06-26T02:06:01;94348.41;;;19.76;100.00
11099;BME280;12223;42.650;23.364;2023-06-26T02:08:28;94347.16;;;19.68;100.00
11099;BME280;12223;42.650;23.364;2023-06-26T02:10:55;94353.91;;;19.66;100.00
11099;BME280;12223;42.650;23.364;2023-06-26T02:13:21;94356.66;;;19.80;100.00
11099;BME280;12223;42.650;23.364;2023-06-26T02:15:48;94355.66;;;19.76;100.00
11099;BME280;12223;42.650;23.364;2023-06-26T02:18:16;94365.75;;;19.84;100.00
11099;BME280;12223;42.650;23.364;2023-06-26T02:20:43;94386.31;;;19.88;100.00
11099;BME280;12223;42.650;23.364;2023-06-26T02:23:10;94388.47;;;19.86;100.00
11099;BME280;12223;42.650;23.364;2023-06-26T02:25:38;94394.06;;;19.90;100.00
11099;BME280;12223;42.650;23.364;2023-06-26T02:28:04;94395.84;;;19.76;100.00
11099;BME280;12223;42.650;23.364;2023-06-26T02:30:31;94386.94;;;19.80;100.00
11099;BME280;12223;42.650;23.364;2023-06-26T02:32:58;94393.03;;;19.86;100.00
11099;BME280;12223;42.650;23.364;2023-06-26T02:35:26;94383.19;;;19.81;100.00
11099;BME280;12223;42.650;23.364;2023-06-26T02:37:53;94391.75;;;19.83;100.00
11099;BME280;12223;42.650;23.364;2023-06-26T02:40:19;94385.94;;;19.76;100.00
11099;BME280;12223;42.650;23.364;2023-06-26T02:42:46;94386.09;;;19.85;100.00
11099;BME280;12223;42.650;23.364;2023-06-26T02:45:13;94393.84;;;19.86;100.00
11099;BME280;12223;42.650;23.364;2023-06-26T02:47:40;94396.75;;;19.90;100.00
11099;BME280;12223;42.650;23.364;2023-06-26T02:50:07;94386.09;;;19.85;100.00
11099;BME280;12223;42.650;23.364;2023-06-26T02:52:35;94381.53;;;19.85;100.00
11099;BME280;12223;42.650;23.364;2023-06-26T02:55:04;94391.13;;;19.91;100.00
11099;BME280;12223;42.650;23.364;2023-06-26T02:57:30;94384.31;;;19.75;100.00
11099;BME280;12223;42.650;23.364;2023-06-26T02:59:57;94383.81;;;19.73;100.00
11099;BME280;12223;42.650;23.364;2023-06-26T03:02:24;94394.63;;;19.87;100.00
11099;BME280;12223;42.650;23.364;2023-06-26T03:04:51;94391.47;;;19.85;100.00
11099;BME280;12223;42.650;23.364;2023-06-26T03:07:18;94390.06;;;19.87;100.00
11099;BME280;12223;42.650;23.364;2023-06-26T03:09:46;94393.50;;;19.93;100.00
11099;BME280;12223;42.650;23.364;2023-06-26T03:12:13;94398.84;;;19.93;100.00
11099;BME280;12223;42.650;23.364;2023-06-26T03:14:39;94407.47;;;19.90;100.00
11099;BME280;12223;42.650;23.364;2023-06-26T03:17:06;94411.41;;;19.97;100.00
11099;BME280;12223;42.650;23.364;2023-06-26T03:19:33;94417.84;;;19.96;100.00
11099;BME280;12223;42.650;23.364;2023-06-26T03:22:00;94417.78;;;20.01;100.00
11099;BME280;12223;42.650;23.364;2023-06-26T03:24:26;94416.28;;;20.14;100.00
11099;BME280;12223;42.650;23.364;2023-06-26T03:26:54;94426.94;;;20.43;100.00
11099;BME280;12223;42.650;23.364;2023-06-26T03:29:22;94447.56;;;20.66;100.00
11099;BME280;12223;42.650;23.364;2023-06-26T03:31:48;94457.22;;;20.86;100.00
11099;BME280;12223;42.650;23.364;2023-06-26T03:34:15;94465.63;;;20.98;100.00
11099;BME280;12223;42.650;23.364;2023-06-26T03:36:42;94473.06;;;21.01;100.00
11099;BME280;12223;42.650;23.364;2023-06-26T03:39:09;94470.75;;;20.95;100.00
11099;BME280;12223;42.650;23.364;2023-06-26T03:41:35;94476.50;;;20.88;100.00
11099;BME280;12223;42.650;23.364;2023-06-26T03:44:04;94464.59;;;20.75;100.00
11099;BME280;12223;42.650;23.364;2023-06-26T03:46:30;94468.88;;;20.76;100.00
11099;BME280;12223;42.650;23.364;2023-06-26T03:48:57;94464.66;;;20.70;100.00
11099;BME280;12223;42.650;23.364;2023-06-26T03:51:24;94453.94;;;20.52;100.00
11099;BME280;12223;42.650;23.364;2023-06-26T03:53:51;94450.69;;;20.55;100.00
11099;BME280;12223;42.650;23.364;2023-06-26T03:56:17;94455.81;;;20.51;100.00
11099;BME280;12223;42.650;23.364;2023-06-26T03:58:44;94457.69;;;20.51;100.00
11099;BME280;12223;42.650;23.364;2023-06-26T04:01:12;94449.72;;;20.45;100.00
11099;BME280;12223;42.650;23.364;2023-06-26T04:03:39;94444.41;;;20.40;100.00
11099;BME280;12223;42.650;23.364;2023-06-26T04:06:06;94448.03;;;20.50;100.00
11099;BME280;12223;42.650;23.364;2023-06-26T04:08:33;94444.97;;;20.61;100.00
11099;BME280;12223;42.650;23.364;2023-06-26T04:10:59;94463.16;;;21.20;100.00
11099;BME280;12223;42.650;23.364;2023-06-26T04:13:26;94474.41;;;22.42;100.00
11099;BME280;12223;42.650;23.364;2023-06-26T04:15:53;94487.69;;;23.60;100.00
11099;BME280;12223;42.650;23.364;2023-06-26T04:18:21;94494.41;;;24.64;100.00
11099;BME280;12223;42.650;23.364;2023-06-26T04:21:05;94500.06;;;25.62;100.00
11099;BME280;12223;42.650;23.364;2023-06-26T04:23:33;94500.13;;;26.17;96.58
11099;BME280;12223;42.650;23.364;2023-06-26T04:26:00;94505.25;;;26.57;89.73
11099;BME280;12223;42.650;23.364;2023-06-26T04:28:28;94504.13;;;26.11;91.62
11099;BME280;12223;42.650;23.364;2023-06-26T04:30:54;94512.34;;;25.59;95.63
11099;BME280;12223;42.650;23.364;2023-06-26T04:33:24;94513.13;;;25.34;99.92
11099;BME280;12223;42.650;23.364;2023-06-26T04:35:51;94518.22;;;25.53;99.27
11099;BME280;12223;42.650;23.364;2023-06-26T04:38:18;94518.84;;;25.76;95.25
11099;BME280;12223;42.650;23.364;2023-06-26T04:40:46;94516.09;;;26.01;92.20
11099;BME280;12223;42.650;23.364;2023-06-26T04:43:12;94512.00;;;26.42;87.41
11099;BME280;12223;42.650;23.364;2023-06-26T04:45:39;94514.06;;;26.45;85.45
11099;BME280;12223;42.650;23.364;2023-06-26T04:48:06;94510.16;;;26.63;84.56
11099;BME280;12223;42.650;23.364;2023-06-26T04:50:35;94511.13;;;26.88;82.09
11099;BME280;12223;42.650;23.364;2023-06-26T04:53:02;94522.47;;;26.52;84.42
11099;BME280;12223;42.650;23.364;2023-06-26T04:55:29;94518.03;;;25.92;89.58
11099;BME280;12223;42.650;23.364;2023-06-26T04:57:55;94517.56;;;25.39;95.19
11099;BME280;12223;42.650;23.364;2023-06-26T05:00:22;94520.34;;;24.82;100.00
11099;BME280;12223;42.650;23.364;2023-06-26T05:02:50;94515.50;;;24.53;100.00
11099;BME280;12223;42.650;23.364;2023-06-26T05:05:24;94519.91;;;24.18;100.00
11099;BME280;12223;42.650;23.364;2023-06-26T05:07:54;94524.31;;;24.05;100.00
11099;BME280;12223;42.650;23.364;2023-06-26T05:10:20;94527.44;;;23.99;100.00
11099;BME280;12223;42.650;23.364;2023-06-26T05:12:47;94528.19;;;23.91;100.00
11099;BME280;12223;42.650;23.364;2023-06-26T05:15:14;94528.81;;;23.65;100.00
11099;BME280;12223;42.650;23.364;2023-06-26T05:17:41;94529.25;;;23.81;100.00
11099;BME280;12223;42.650;23.364;2023-06-26T05:20:09;94528.38;;;23.94;100.00
11099;BME280;12223;42.650;23.364;2023-06-26T05:22:37;94531.44;;;24.01;100.00
11099;BME280;12223;42.650;23.364;2023-06-26T05:25:09;94531.72;;;23.33;100.00
11099;BME280;12223;42.650;23.364;2023-06-26T05:27:37;94537.88;;;23.11;100.00
11099;BME280;12223;42.650;23.364;2023-06-26T05:30:04;94536.91;;;22.66;100.00
11099;BME280;12223;42.650;23.364;2023-06-26T05:32:34;94526.22;;;22.34;100.00
11099;BME280;12223;42.650;23.364;2023-06-26T05:35:02;94527.72;;;22.13;100.00
11099;BME280;12223;42.650;23.364;2023-06-26T05:37:30;94526.44;;;22.24;100.00
11099;BME280;12223;42.650;23.364;2023-06-26T05:39:58;94530.63;;;22.57;100.00
11099;BME280;12223;42.650;23.364;2023-06-26T05:42:26;94537.78;;;23.03;100.00
11099;BME280;12223;42.650;23.364;2023-06-26T05:44:53;94532.97;;;23.13;100.00
11099;BME280;12223;42.650;23.364;2023-06-26T05:47:20;94532.63;;;23.64;100.00
11099;BME280;12223;42.650;23.364;2023-06-26T05:49:47;94541.22;;;23.97;100.00
11099;BME280;12223;42.650;23.364;2023-06-26T05:52:14;94536.53;;;24.12;100.00
11099;BME280;12223;42.650;23.364;2023-06-26T05:54:42;94539.25;;;24.34;100.00
11099;BME280;12223;42.650;23.364;2023-06-26T05:57:09;94541.25;;;24.59;100.00
11099;BME280;12223;42.650;23.364;2023-06-26T05:59:39;94543.28;;;24.23;100.00
11099;BME280;12223;42.650;23.364;2023-06-26T06:02:07;94545.59;;;24.38;100.00
11099;BME280;12223;42.650;23.364;2023-06-26T06:04:33;94543.94;;;24.28;100.00
11099;BME280;12223;42.650;23.364;2023-06-26T06:07:02;94546.22;;;24.35;100.00
11099;BME280;12223;42.650;23.364;2023-06-26T06:09:29;94548.22;;;24.21;100.00
11099;BME280;12223;42.650;23.364;2023-06-26T06:11:56;94543.13;;;24.19;100.00
11099;BME280;12223;42.650;23.364;2023-06-26T06:14:23;94543.13;;;24.19;100.00
11099;BME280;12223;42.650;23.364;2023-06-26T06:16:51;94534.56;;;23.73;100.00
11099;BME280;12223;42.650;23.364;2023-06-26T06:19:18;94536.00;;;23.34;100.00
11099;BME280;12223;42.650;23.364;2023-06-26T06:21:45;94537.66;;;23.57;100.00
11099;BME280;12223;42.650;23.364;2023-06-26T06:24:11;94544.59;;;24.03;100.00
11099;BME280;12223;42.650;23.364;2023-06-26T06:26:38;94535.31;;;24.40;100.00
11099;BME280;12223;42.650;23.364;2023-06-26T06:29:05;94532.69;;;24.74;100.00
11099;BME280;12223;42.650;23.364;2023-06-26T06:31:32;94541.38;;;24.94;100.00
11099;BME280;12223;42.650;23.364;2023-06-26T06:34:00;94544.88;;;25.03;100.00
11099;BME280;12223;42.650;23.364;2023-06-26T06:36:28;94530.41;;;24.51;100.00
11099;BME280;12223;42.650;23.364;2023-06-26T06:38:55;94538.56;;;23.75;100.00
11099;BME280;12223;42.650;23.364;2023-06-26T06:41:21;94530.38;;;23.44;100.00
11099;BME280;12223;42.650;23.364;2023-06-26T06:43:48;94538.66;;;23.48;100.00
11099;BME280;12223;42.650;23.364;2023-06-26T06:46:15;94541.19;;;23.67;100.00
11099;BME280;12223;42.650;23.364;2023-06-26T06:48:42;94534.19;;;23.65;100.00
11099;BME280;12223;42.650;23.364;2023-06-26T06:51:10;94531.63;;;23.83;100.00
11099;BME280;12223;42.650;23.364;2023-06-26T06:53:36;94532.50;;;23.70;100.00
11099;BME280;12223;42.650;23.364;2023-06-26T06:56:03;94527.09;;;23.70;100.00
11099;BME280;12223;42.650;23.364;2023-06-26T06:58:30;94528.16;;;24.44;100.00
11099;BME280;12223;42.650;23.364;2023-06-26T07:00:59;94533.78;;;25.21;100.00
11099;BME280;12223;42.650;23.364;2023-06-26T07:03:28;94532.53;;;25.53;95.92
11099;BME280;12223;42.650;23.364;2023-06-26T07:05:55;94528.88;;;25.41;95.27
11099;BME280;12223;42.650;23.364;2023-06-26T07:08:23;94533.63;;;25.27;97.40
11099;BME280;12223;42.650;23.364;2023-06-26T07:10:50;94526.47;;;25.48;93.18
11099;BME280;12223;42.650;23.364;2023-06-26T07:13:17;94518.34;;;25.74;88.63
11099;BME280;12223;42.650;23.364;2023-06-26T07:15:45;94524.81;;;26.24;80.98
11099;BME280;12223;42.650;23.364;2023-06-26T07:18:13;94520.88;;;26.05;82.43
11099;BME280;12223;42.650;23.364;2023-06-26T07:20:40;94521.38;;;26.45;82.06
11099;BME280;12223;42.650;23.364;2023-06-26T07:23:07;94534.31;;;26.77;77.89
11099;BME280;12223;42.650;23.364;2023-06-26T07:25:36;94530.72;;;26.64;75.51
11099;BME280;12223;42.650;23.364;2023-06-26T07:28:03;94525.06;;;25.59;80.62
11099;BME280;12223;42.650;23.364;2023-06-26T07:30:29;94534.94;;;25.72;83.47
11099;BME280;12223;42.650;23.364;2023-06-26T07:32:56;94531.44;;;25.72;83.18
11099;BME280;12223;42.650;23.364;2023-06-26T07:35:23;94534.41;;;26.05;81.62
11099;BME280;12223;42.650;23.364;2023-06-26T07:37:52;94523.66;;;26.34;76.81
11099;BME280;12223;42.650;23.364;2023-06-26T07:40:19;94523.66;;;26.42;73.66
11099;BME280;12223;42.650;23.364;2023-06-26T07:42:47;94529.72;;;26.31;74.43
11099;BME280;12223;42.650;23.364;2023-06-26T07:45:14;94516.50;;;26.21;70.70
11099;BME280;12223;42.650;23.364;2023-06-26T07:47:41;94530.56;;;26.06;73.42
11099;BME280;12223;42.650;23.364;2023-06-26T07:50:08;94526.78;;;25.98;75.53
11099;BME280;12223;42.650;23.364;2023-06-26T07:52:35;94526.47;;;26.55;74.26
11099;BME280;12223;42.650;23.364;2023-06-26T07:55:02;94526.22;;;26.68;69.08
11099;BME280;12223;42.650;23.364;2023-06-26T07:57:29;94536.28;;;26.13;70.99
11099;BME280;12223;42.650;23.364;2023-06-26T07:59:58;94530.94;;;25.35;74.62
11099;BME280;12223;42.650;23.364;2023-06-26T08:02:25;94529.66;;;25.50;76.48
11099;BME280;12223;42.650;23.364;2023-06-26T08:04:52;94522.66;;;25.49;78.87
11099;BME280;12223;42.650;23.364;2023-06-26T08:07:19;94526.66;;;25.77;75.20
11099;BME280;12223;42.650;23.364;2023-06-26T08:09:45;94515.91;;;26.24;72.45
11099;BME280;12223;42.650;23.364;2023-06-26T08:12:12;94517.53;;;26.83;70.00
11099;BME280;12223;42.650;23.364;2023-06-26T08:14:39;94520.59;;;27.32;65.78
11099;BME280;12223;42.650;23.364;2023-06-26T08:17:07;94521.81;;;27.43;61.44
11099;BME280;12223;42.650;23.364;2023-06-26T08:19:34;94519.34;;;27.50;60.12
11099;BME280;12223;42.650;23.364;2023-06-26T08:22:01;94496.91;;;27.41;59.62
11099;BME280;12223;42.650;23.364;2023-06-26T08:24:27;94521.41;;;27.53;60.27
11099;BME280;12223;42.650;23.364;2023-06-26T08:26:54;94524.91;;;27.12;63.02
11099;BME280;12223;42.650;23.364;2023-06-26T08:29:21;94509.22;;;27.39;60.95
11099;BME280;12223;42.650;23.364;2023-06-26T08:31:48;94495.31;;;27.40;58.03
11099;BME280;12223;42.650;23.364;2023-06-26T08:34:16;94527.44;;;27.59;58.04
11099;BME280;12223;42.650;23.364;2023-06-26T08:36:43;94528.03;;;27.44;60.58
11099;BME280;12223;42.650;23.364;2023-06-26T08:39:10;94516.94;;;27.07;60.49
11099;BME280;12223;42.650;23.364;2023-06-26T08:41:37;94527.34;;;26.67;64.38
11099;BME280;12223;42.650;23.364;2023-06-26T08:44:04;94528.91;;;26.39;66.88
11099;BME280;12223;42.650;23.364;2023-06-26T08:46:31;94513.75;;;26.76;66.66
11099;BME280;12223;42.650;23.364;2023-06-26T08:49:01;94527.38;;;26.97;67.07
11099;BME280;12223;42.650;23.364;2023-06-26T08:51:33;94521.31;;;27.00;66.98
11099;BME280;12223;42.650;23.364;2023-06-26T08:54:02;94511.13;;;26.88;65.67
11099;BME280;12223;42.650;23.364;2023-06-26T08:56:35;94522.22;;;27.04;65.45
11099;BME280;12223;42.650;23.364;2023-06-26T08:59:03;94521.06;;;27.34;62.33
11099;BME280;12223;42.650;23.364;2023-06-26T09:01:31;94517.91;;;27.74;59.31
11099;BME280;12223;42.650;23.364;2023-06-26T09:03:58;94519.34;;;28.04;58.38
11099;BME280;12223;42.650;23.364;2023-06-26T09:06:25;94515.81;;;26.79;59.85
11099;BME280;12223;42.650;23.364;2023-06-26T09:08:53;94523.81;;;26.37;61.10
11099;BME280;12223;42.650;23.364;2023-06-26T09:11:20;94518.91;;;26.14;62.92
11099;BME280;12223;42.650;23.364;2023-06-26T09:13:47;94509.75;;;25.97;65.02
11099;BME280;12223;42.650;23.364;2023-06-26T09:16:14;94510.19;;;25.99;64.61
11099;BME280;12223;42.650;23.364;2023-06-26T09:18:41;94503.81;;;26.59;63.97
11099;BME280;12223;42.650;23.364;2023-06-26T09:21:09;94511.59;;;27.19;61.51
11099;BME280;12223;42.650;23.364;2023-06-26T09:23:36;94516.47;;;27.55;60.70
11099;BME280;12223;42.650;23.364;2023-06-26T09:26:05;94512.69;;;27.69;59.10
11099;BME280;12223;42.650;23.364;2023-06-26T09:28:32;94515.47;;;27.60;57.73
11099;BME280;12223;42.650;23.364;2023-06-26T09:31:02;94514.50;;;27.77;57.72
11099;BME280;12223;42.650;23.364;2023-06-26T09:33:34;94511.34;;;27.75;55.38
11099;BME280;12223;42.650;23.364;2023-06-26T09:36:05;94515.84;;;28.04;54.61
11099;BME280;12223;42.650;23.364;2023-06-26T09:38:33;94508.34;;;28.33;54.02
11099;BME280;12223;42.650;23.364;2023-06-26T09:41:00;94512.25;;;28.57;54.04
11099;BME280;12223;42.650;23.364;2023-06-26T09:43:29;94510.22;;;28.78;53.33
11099;BME280;12223;42.650;23.364;2023-06-26T09:45:56;94500.34;;;28.61;52.96
11099;BME280;12223;42.650;23.364;2023-06-26T09:48:24;94496.69;;;28.33;54.53
11099;BME280;12223;42.650;23.364;2023-06-26T09:50:50;94497.38;;;28.30;56.15
11099;BME280;12223;42.650;23.364;2023-06-26T09:53:17;94494.09;;;28.24;53.71
11099;BME280;12223;42.650;23.364;2023-06-26T09:55:44;94504.75;;;28.09;53.95
11099;BME280;12223;42.650;23.364;2023-06-26T09:58:12;94509.53;;;27.79;54.26
11099;BME280;12223;42.650;23.364;2023-06-26T10:00:42;94514.22;;;27.90;54.18
11099;BME280;12223;42.650;23.364;2023-06-26T10:03:10;94515.78;;;27.58;54.92
11099;BME280;12223;42.650;23.364;2023-06-26T10:05:38;94505.91;;;27.33;53.09
11099;BME280;12223;42.650;23.364;2023-06-26T10:08:05;94511.53;;;27.28;53.81
11099;BME280;12223;42.650;23.364;2023-06-26T10:10:35;94506.59;;;26.71;55.75
11099;BME280;12223;42.650;23.364;2023-06-26T10:13:08;94513.94;;;26.41;56.73
11099;BME280;12223;42.650;23.364;2023-06-26T10:15:37;94508.78;;;25.93;59.06
11099;BME280;12223;42.650;23.364;2023-06-26T10:18:08;94512.75;;;25.96;59.39
11099;BME280;12223;42.650;23.364;2023-06-26T10:20:36;94506.28;;;25.80;60.60
11099;BME280;12223;42.650;23.364;2023-06-26T10:23:05;94513.25;;;25.89;60.64
11099;BME280;12223;42.650;23.364;2023-06-26T10:25:34;94505.63;;;25.83;58.46
11099;BME280;12223;42.650;23.364;2023-06-26T10:28:04;94507.09;;;25.63;60.48
11099;BME280;12223;42.650;23.364;2023-06-26T10:30:33;94510.91;;;25.79;58.67
11099;BME280;12223;42.650;23.364;2023-06-26T10:33:02;94504.69;;;25.70;59.46
11099;BME280;12223;42.650;23.364;2023-06-26T10:35:32;94513.59;;;25.36;60.94
11099;BME280;12223;42.650;23.364;2023-06-26T10:38:02;94495.47;;;25.02;62.38
11099;BME280;12223;42.650;23.364;2023-06-26T10:40:40;94519.94;;;24.97;63.78
11099;BME280;12223;42.650;23.364;2023-06-26T10:43:08;94499.38;;;24.88;63.68
11099;BME280;12223;42.650;23.364;2023-06-26T10:45:36;94505.84;;;24.69;63.05
11099;BME280;12223;42.650;23.364;2023-06-26T10:48:03;94506.47;;;24.66;63.60
11099;BME280;12223;42.650;23.364;2023-06-26T10:50:32;94500.47;;;24.87;61.61
11099;BME280;12223;42.650;23.364;2023-06-26T10:53:08;94499.50;;;24.74;61.88
11099;BME280;12223;42.650;23.364;2023-06-26T10:55:36;94496.34;;;24.72;62.26
11099;BME280;12223;42.650;23.364;2023-06-26T10:58:03;94491.69;;;24.72;62.03
11099;BME280;12223;42.650;23.364;2023-06-26T11:00:29;94482.94;;;24.67;62.53
11099;BME280;12223;42.650;23.364;2023-06-26T11:03:01;94491.00;;;24.89;62.46
11099;BME280;12223;42.650;23.364;2023-06-26T11:06:09;94490.66;;;24.99;62.91
11099;BME280;12223;42.650;23.364;2023-06-26T11:08:44;94488.78;;;25.17;62.77
11099;BME280;12223;42.650;23.364;2023-06-26T11:11:11;94494.34;;;25.20;63.57
11099;BME280;12223;42.650;23.364;2023-06-26T11:13:39;94485.28;;;25.51;62.31
11099;BME280;12223;42.650;23.364;2023-06-26T11:16:06;94482.56;;;25.51;62.07
11099;BME280;12223;42.650;23.364;2023-06-26T11:18:33;94480.81;;;25.55;59.86
11099;BME280;12223;42.650;23.364;2023-06-26T11:21:06;94488.16;;;25.63;58.62
11099;BME280;12223;42.650;23.364;2023-06-26T11:23:34;94484.16;;;25.78;58.34
11099;BME280;12223;42.650;23.364;2023-06-26T11:26:17;94473.28;;;26.03;58.46
11099;BME280;12223;42.650;23.364;2023-06-26T11:28:50;94475.59;;;26.22;59.15
11099;BME280;12223;42.650;23.364;2023-06-26T11:31:27;94481.56;;;26.45;57.84
11099;BME280;12223;42.650;23.364;2023-06-26T11:33:55;94466.66;;;26.30;56.67
11099;BME280;12223;42.650;23.364;2023-06-26T11:36:24;94485.59;;;26.30;56.93
11099;BME280;12223;42.650;23.364;2023-06-26T11:38:54;94476.00;;;26.41;57.17
11099;BME280;12223;42.650;23.364;2023-06-26T11:41:21;94471.81;;;26.53;56.95
11099;BME280;12223;42.650;23.364;2023-06-26T11:43:49;94474.19;;;26.83;56.02
11099;BME280;12223;42.650;23.364;2023-06-26T11:46:16;94464.78;;;27.10;53.78
11099;BME280;12223;42.650;23.364;2023-06-26T11:49:09;94476.34;;;26.69;52.54
11099;BME280;12223;42.650;23.364;2023-06-26T11:51:38;94480.16;;;26.68;52.53
11099;BME280;12223;42.650;23.364;2023-06-26T11:54:06;94476.84;;;26.63;52.97
11099;BME280;12223;42.650;23.364;2023-06-26T11:56:33;94480.81;;;26.65;53.09
11099;BME280;12223;42.650;23.364;2023-06-26T11:59:01;94480.97;;;26.31;54.03
11099;BME280;12223;42.650;23.364;2023-06-26T12:01:33;94477.75;;;26.46;53.94
11099;BME280;12223;42.650;23.364;2023-06-26T12:04:01;94426.81;;;25.93;55.02
11099;BME280;12223;42.650;23.364;2023-06-26T12:06:29;94455.81;;;26.30;55.72
11099;BME280;12223;42.650;23.364;2023-06-26T12:08:59;94468.03;;;26.74;55.13
11099;BME280;12223;42.650;23.364;2023-06-26T12:11:27;94472.25;;;26.93;54.56
11099;BME280;12223;42.650;23.364;2023-06-26T12:13:55;94476.28;;;27.07;53.53
11099;BME280;12223;42.650;23.364;2023-06-26T12:16:22;94463.84;;;27.27;53.00
11099;BME280;12223;42.650;23.364;2023-06-26T12:18:49;94469.53;;;27.34;51.93
11099;BME280;12223;42.650;23.364;2023-06-26T12:21:28;94459.41;;;27.02;50.86
11099;BME280;12223;42.650;23.364;2023-06-26T12:24:00;94450.50;;;26.72;50.52
11099;BME280;12223;42.650;23.364;2023-06-26T12:26:27;94464.06;;;26.72;52.09
11099;BME280;12223;42.650;23.364;2023-06-26T12:29:01;94463.69;;;26.53;53.58
11099;BME280;12223;42.650;23.364;2023-06-26T12:31:28;94461.94;;;26.77;53.80
11099;BME280;12223;42.650;23.364;2023-06-26T12:33:55;94458.09;;;26.58;51.99
11099;BME280;12223;42.650;23.364;2023-06-26T12:36:22;94458.13;;;26.11;53.01
11099;BME280;12223;42.650;23.364;2023-06-26T12:38:49;94458.78;;;25.99;53.96
11099;BME280;12223;42.650;23.364;2023-06-26T12:41:17;94458.06;;;26.20;53.78
11099;BME280;12223;42.650;23.364;2023-06-26T12:43:45;94458.72;;;26.25;51.79
11099;BME280;12223;42.650;23.364;2023-06-26T12:46:12;94465.25;;;26.16;52.39
11099;BME280;12223;42.650;23.364;2023-06-26T12:48:40;94454.66;;;25.93;53.51
11099;BME280;12223;42.650;23.364;2023-06-26T12:51:10;94456.84;;;26.09;54.47